sensor_id;sensor_type;location;lat;lon;timestamp;P1;durP1;ratioP1;P2;durP2;ratioP2
68700;SDS011;55682;51.114;5.882;2023-08-20T00:01:26;7.17;;;7.17;;
68700;SDS011;55682;51.114;5.882;2023-08-20T00:03:52;7.16;;;7.16;;
68700;SDS011;55682;51.114;5.882;2023-08-20T00:06:19;7.61;;;7.61;;
68700;SDS011;55682;51.114;5.882;2023-08-20T00:08:46;6.93;;;6.93;;
68700;SDS011;55682;51.114;5.882;2023-08-20T00:11:13;7.01;;;7.01;;
68700;SDS011;55682;51.114;5.882;2023-08-20T00:13:39;6.73;;;6.73;;
68700;SDS011;55682;51.114;5.882;2023-08-20T00:16:05;6.79;;;6.79;;
68700;SDS011;55682;51.114;5.882;2023-08-20T00:18:31;7.27;;;7.27;;
68700;SDS011;55682;51.114;5.882;2023-08-20T00:20:57;7.34;;;7.34;;
68700;SDS011;55682;51.114;5.882;2023-08-20T00:23:25;7.72;;;7.72;;
68700;SDS011;55682;51.114;5.882;2023-08-20T00:25:51;7.52;;;7.52;;
68700;SDS011;55682;51.114;5.882;2023-08-20T00:28:18;7.75;;;7.75;;
68700;SDS011;55682;51.114;5.882;2023-08-20T00:30:45;7.87;;;7.87;;
68700;SDS011;55682;51.114;5.882;2023-08-20T00:33:10;7.77;;;7.77;;
68700;SDS011;55682;51.114;5.882;2023-08-20T00:35:36;8.28;;;8.28;;
68700;SDS011;55682;51.114;5.882;2023-08-20T00:38:02;8.13;;;8.13;;
68700;SDS011;55682;51.114;5.882;2023-08-20T00:40:28;8.45;;;8.45;;
68700;SDS011;55682;51.114;5.882;2023-08-20T00:42:53;8.48;;;8.48;;
68700;SDS011;55682;51.114;5.882;2023-08-20T00:45:21;8.64;;;8.64;;
68700;SDS011;55682;51.114;5.882;2023-08-20T00:47:49;8.93;;;8.93;;
68700;SDS011;55682;51.114;5.882;2023-08-20T00:50:15;8.64;;;8.64;;
68700;SDS011;55682;51.114;5.882;2023-08-20T00:52:41;8.68;;;8.68;;
68700;SDS011;55682;51.114;5.882;2023-08-20T00:55:09;8.63;;;8.63;;
68700;SDS011;55682;51.114;5.882;2023-08-20T00:57:37;8.50;;;8.50;;
68700;SDS011;55682;51.114;5.882;2023-08-20T01:00:03;8.92;;;8.92;;
68700;SDS011;55682;51.114;5.882;2023-08-20T01:02:35;9.06;;;9.06;;
68700;SDS011;55682;51.114;5.882;2023-08-20T01:05:03;9.05;;;9.05;;
68700;SDS011;55682;51.114;5.882;2023-08-20T01:10:33;9.66;;;9.66;;
68700;SDS011;55682;51.114;5.882;2023-08-20T01:13:17;9.48;;;9.48;;
68700;SDS011;55682;51.114;5.882;2023-08-20T01:15:43;9.09;;;9.09;;
68700;SDS011;55682;51.114;5.882;2023-08-20T01:18:09;9.58;;;9.58;;
68700;SDS011;55682;51.114;5.882;2023-08-20T01:20:42;9.62;;;9.62;;
68700;SDS011;55682;51.114;5.882;2023-08-20T01:25:58;10.00;;;9.99;;
68700;SDS011;55682;51.114;5.882;2023-08-20T01:28:39;10.04;;;10.04;;
68700;SDS011;55682;51.114;5.882;2023-08-20T01:31:05;9.94;;;9.94;;
68700;SDS011;55682;51.114;5.882;2023-08-20T01:33:32;10.46;;;10.46;;
68700;SDS011;55682;51.114;5.882;2023-08-20T01:35:59;10.52;;;10.52;;
68700;SDS011;55682;51.114;5.882;2023-08-20T01:38:25;10.00;;;10.00;;
68700;SDS011;55682;51.114;5.882;2023-08-20T01:40:50;10.35;;;10.35;;
68700;SDS011;55682;51.114;5.882;2023-08-20T01:43:16;10.10;;;10.10;;
68700;SDS011;55682;51.114;5.882;2023-08-20T01:45:42;10.52;;;10.51;;
68700;SDS011;55682;51.114;5.882;2023-08-20T01:48:07;10.46;;;10.44;;
68700;SDS011;55682;51.114;5.882;2023-08-20T01:50:34;10.75;;;10.75;;
68700;SDS011;55682;51.114;5.882;2023-08-20T01:53:01;10.93;;;10.93;;
68700;SDS011;55682;51.114;5.882;2023-08-20T01:55:28;10.73;;;10.73;;
68700;SDS011;55682;51.114;5.882;2023-08-20T01:57:54;10.51;;;10.50;;
68700;SDS011;55682;51.114;5.882;2023-08-20T02:00:20;11.03;;;10.88;;
68700;SDS011;55682;51.114;5.882;2023-08-20T02:02:45;11.02;;;11.02;;
68700;SDS011;55682;51.114;5.882;2023-08-20T02:05:11;10.98;;;10.94;;
68700;SDS011;55682;51.114;5.882;2023-08-20T02:07:37;11.27;;;11.26;;
68700;SDS011;55682;51.114;5.882;2023-08-20T02:10:03;11.08;;;11.08;;
68700;SDS011;55682;51.114;5.882;2023-08-20T02:12:30;11.08;;;11.07;;
68700;SDS011;55682;51.114;5.882;2023-08-20T02:14:56;11.18;;;11.18;;
68700;SDS011;55682;51.114;5.882;2023-08-20T02:17:21;11.15;;;11.15;;
68700;SDS011;55682;51.114;5.882;2023-08-20T02:19:48;12.65;;;12.65;;
68700;SDS011;55682;51.114;5.882;2023-08-20T02:22:14;12.71;;;12.71;;
68700;SDS011;55682;51.114;5.882;2023-08-20T02:24:40;12.90;;;12.90;;
68700;SDS011;55682;51.114;5.882;2023-08-20T02:27:07;12.62;;;12.62;;
68700;SDS011;55682;51.114;5.882;2023-08-20T02:29:32;12.95;;;12.95;;
68700;SDS011;55682;51.114;5.882;2023-08-20T02:31:58;12.79;;;12.78;;
68700;SDS011;55682;51.114;5.882;2023-08-20T02:34:24;12.42;;;12.42;;
68700;SDS011;55682;51.114;5.882;2023-08-20T02:36:49;11.73;;;11.73;;
68700;SDS011;55682;51.114;5.882;2023-08-20T02:39:15;12.17;;;12.17;;
68700;SDS011;55682;51.114;5.882;2023-08-20T02:41:42;12.14;;;12.09;;
68700;SDS011;55682;51.114;5.882;2023-08-20T02:44:08;11.81;;;11.81;;
68700;SDS011;55682;51.114;5.882;2023-08-20T02:46:34;12.14;;;12.14;;
68700;SDS011;55682;51.114;5.882;2023-08-20T02:49:00;11.49;;;11.49;;
68700;SDS011;55682;51.114;5.882;2023-08-20T02:51:27;11.99;;;11.99;;
68700;SDS011;55682;51.114;5.882;2023-08-20T02:53:53;11.72;;;11.72;;
68700;SDS011;55682;51.114;5.882;2023-08-20T02:56:18;12.01;;;12.01;;
68700;SDS011;55682;51.114;5.882;2023-08-20T02:58:44;12.39;;;12.39;;
68700;SDS011;55682;51.114;5.882;2023-08-20T03:01:17;11.96;;;11.92;;
68700;SDS011;55682;51.114;5.882;2023-08-20T03:03:51;12.94;;;12.68;;
68700;SDS011;55682;51.114;5.882;2023-08-20T03:06:17;12.28;;;12.28;;
68700;SDS011;55682;51.114;5.882;2023-08-20T03:08:43;11.90;;;11.90;;
68700;SDS011;55682;51.114;5.882;2023-08-20T03:11:08;11.22;;;11.22;;
68700;SDS011;55682;51.114;5.882;2023-08-20T03:13:34;11.68;;;11.68;;
68700;SDS011;55682;51.114;5.882;2023-08-20T03:16:00;11.77;;;11.77;;
68700;SDS011;55682;51.114;5.882;2023-08-20T03:18:25;12.18;;;12.18;;
68700;SDS011;55682;51.114;5.882;2023-08-20T03:20:51;11.54;;;11.54;;
68700;SDS011;55682;51.114;5.882;2023-08-20T03:23:17;11.59;;;11.59;;
68700;SDS011;55682;51.114;5.882;2023-08-20T03:25:42;11.71;;;11.71;;
68700;SDS011;55682;51.114;5.882;2023-08-20T03:28:08;11.96;;;11.96;;
68700;SDS011;55682;51.114;5.882;2023-08-20T03:30:36;11.80;;;11.80;;
68700;SDS011;55682;51.114;5.882;2023-08-20T03:33:02;11.34;;;11.34;;
68700;SDS011;55682;51.114;5.882;2023-08-20T03:35:30;11.72;;;11.72;;
68700;SDS011;55682;51.114;5.882;2023-08-20T03:37:57;11.66;;;11.66;;
68700;SDS011;55682;51.114;5.882;2023-08-20T03:40:22;11.61;;;11.61;;
68700;SDS011;55682;51.114;5.882;2023-08-20T03:42:48;11.30;;;11.30;;
68700;SDS011;55682;51.114;5.882;2023-08-20T03:45:16;11.41;;;11.41;;
68700;SDS011;55682;51.114;5.882;2023-08-20T03:47:42;11.60;;;11.60;;
68700;SDS011;55682;51.114;5.882;2023-08-20T03:50:09;11.63;;;11.63;;
68700;SDS011;55682;51.114;5.882;2023-08-20T03:52:35;11.67;;;11.67;;
68700;SDS011;55682;51.114;5.882;2023-08-20T03:55:02;11.60;;;11.60;;
68700;SDS011;55682;51.114;5.882;2023-08-20T03:57:28;10.82;;;10.82;;
68700;SDS011;55682;51.114;5.882;2023-08-20T03:59:53;10.88;;;10.88;;
68700;SDS011;55682;51.114;5.882;2023-08-20T04:02:19;11.30;;;11.30;;
68700;SDS011;55682;51.114;5.882;2023-08-20T04:04:45;11.48;;;11.48;;
68700;SDS011;55682;51.114;5.882;2023-08-20T04:07:12;11.63;;;11.63;;
68700;SDS011;55682;51.114;5.882;2023-08-20T04:09:37;11.47;;;11.47;;
68700;SDS011;55682;51.114;5.882;2023-08-20T04:12:04;11.49;;;11.49;;
68700;SDS011;55682;51.114;5.882;2023-08-20T04:14:31;11.32;;;11.32;;
68700;SDS011;55682;51.114;5.882;2023-08-20T04:16:56;11.41;;;11.38;;
68700;SDS011;55682;51.114;5.882;2023-08-20T04:19:23;11.41;;;11.40;;
68700;SDS011;55682;51.114;5.882;2023-08-20T04:21:49;11.40;;;11.39;;
68700;SDS011;55682;51.114;5.882;2023-08-20T04:24:15;11.40;;;11.40;;
68700;SDS011;55682;51.114;5.882;2023-08-20T04:26:40;11.01;;;11.01;;
68700;SDS011;55682;51.114;5.882;2023-08-20T04:29:06;11.82;;;11.82;;
68700;SDS011;55682;51.114;5.882;2023-08-20T04:31:32;11.64;;;11.64;;
68700;SDS011;55682;51.114;5.882;2023-08-20T04:34:02;11.84;;;11.84;;
68700;SDS011;55682;51.114;5.882;2023-08-20T04:36:42;11.80;;;11.80;;
68700;SDS011;55682;51.114;5.882;2023-08-20T04:39:08;11.81;;;11.81;;
68700;SDS011;55682;51.114;5.882;2023-08-20T04:41:37;11.73;;;11.73;;
68700;SDS011;55682;51.114;5.882;2023-08-20T04:44:03;11.61;;;11.61;;
68700;SDS011;55682;51.114;5.882;2023-08-20T04:46:28;11.30;;;11.30;;
68700;SDS011;55682;51.114;5.882;2023-08-20T04:48:55;11.44;;;11.44;;
68700;SDS011;55682;51.114;5.882;2023-08-20T04:51:20;11.62;;;11.62;;
68700;SDS011;55682;51.114;5.882;2023-08-20T04:53:46;12.06;;;12.06;;
68700;SDS011;55682;51.114;5.882;2023-08-20T04:56:12;12.33;;;12.33;;
68700;SDS011;55682;51.114;5.882;2023-08-20T04:58:39;12.29;;;12.29;;
68700;SDS011;55682;51.114;5.882;2023-08-20T05:01:05;11.53;;;11.53;;
68700;SDS011;55682;51.114;5.882;2023-08-20T05:03:31;11.96;;;11.96;;
68700;SDS011;55682;51.114;5.882;2023-08-20T05:05:57;11.25;;;11.25;;
68700;SDS011;55682;51.114;5.882;2023-08-20T05:08:23;11.26;;;11.26;;
68700;SDS011;55682;51.114;5.882;2023-08-20T05:10:49;11.40;;;11.40;;
68700;SDS011;55682;51.114;5.882;2023-08-20T05:13:17;11.48;;;11.48;;
68700;SDS011;55682;51.114;5.882;2023-08-20T05:15:43;11.51;;;11.51;;
68700;SDS011;55682;51.114;5.882;2023-08-20T05:18:08;11.68;;;11.68;;
68700;SDS011;55682;51.114;5.882;2023-08-20T05:20:34;11.19;;;11.19;;
68700;SDS011;55682;51.114;5.882;2023-08-20T05:23:00;10.75;;;10.75;;
68700;SDS011;55682;51.114;5.882;2023-08-20T05:25:25;11.12;;;11.12;;
68700;SDS011;55682;51.114;5.882;2023-08-20T05:27:51;10.98;;;10.98;;
68700;SDS011;55682;51.114;5.882;2023-08-20T05:30:17;11.25;;;11.25;;
68700;SDS011;55682;51.114;5.882;2023-08-20T05:32:42;10.37;;;10.37;;
68700;SDS011;55682;51.114;5.882;2023-08-20T05:35:08;10.32;;;10.32;;
68700;SDS011;55682;51.114;5.882;2023-08-20T05:37:35;10.37;;;10.37;;
68700;SDS011;55682;51.114;5.882;2023-08-20T05:40:01;11.12;;;11.12;;
68700;SDS011;55682;51.114;5.882;2023-08-20T05:42:29;10.88;;;10.88;;
68700;SDS011;55682;51.114;5.882;2023-08-20T05:45:01;11.08;;;11.08;;
68700;SDS011;55682;51.114;5.882;2023-08-20T05:47:28;10.50;;;10.50;;
68700;SDS011;55682;51.114;5.882;2023-08-20T05:49:53;10.40;;;10.40;;
68700;SDS011;55682;51.114;5.882;2023-08-20T05:52:19;10.65;;;10.65;;
68700;SDS011;55682;51.114;5.882;2023-08-20T05:54:46;10.28;;;10.28;;
68700;SDS011;55682;51.114;5.882;2023-08-20T05:57:12;10.07;;;10.07;;
68700;SDS011;55682;51.114;5.882;2023-08-20T05:59:38;10.24;;;10.24;;
68700;SDS011;55682;51.114;5.882;2023-08-20T06:02:03;10.09;;;10.09;;
68700;SDS011;55682;51.114;5.882;2023-08-20T06:04:29;10.46;;;10.46;;
68700;SDS011;55682;51.114;5.882;2023-08-20T06:06:55;10.64;;;10.64;;
68700;SDS011;55682;51.114;5.882;2023-08-20T06:09:20;10.55;;;10.55;;
68700;SDS011;55682;51.114;5.882;2023-08-20T06:11:46;10.00;;;10.00;;
68700;SDS011;55682;51.114;5.882;2023-08-20T06:14:12;10.11;;;10.11;;
68700;SDS011;55682;51.114;5.882;2023-08-20T06:16:37;10.20;;;10.20;;
68700;SDS011;55682;51.114;5.882;2023-08-20T06:19:03;9.73;;;9.73;;
68700;SDS011;55682;51.114;5.882;2023-08-20T06:21:29;9.40;;;9.40;;
68700;SDS011;55682;51.114;5.882;2023-08-20T06:23:54;10.18;;;10.18;;
68700;SDS011;55682;51.114;5.882;2023-08-20T06:26:20;9.66;;;9.66;;
68700;SDS011;55682;51.114;5.882;2023-08-20T06:28:46;9.58;;;9.58;;
68700;SDS011;55682;51.114;5.882;2023-08-20T06:31:11;9.38;;;9.38;;
68700;SDS011;55682;51.114;5.882;2023-08-20T06:33:37;10.03;;;10.03;;
68700;SDS011;55682;51.114;5.882;2023-08-20T06:36:03;10.18;;;10.18;;
68700;SDS011;55682;51.114;5.882;2023-08-20T06:38:29;10.62;;;10.62;;
68700;SDS011;55682;51.114;5.882;2023-08-20T06:40:55;10.31;;;10.31;;
68700;SDS011;55682;51.114;5.882;2023-08-20T06:43:21;10.50;;;10.50;;
68700;SDS011;55682;51.114;5.882;2023-08-20T06:45:47;10.22;;;10.22;;
68700;SDS011;55682;51.114;5.882;2023-08-20T06:48:12;9.81;;;9.81;;
68700;SDS011;55682;51.114;5.882;2023-08-20T06:50:38;9.91;;;9.91;;
68700;SDS011;55682;51.114;5.882;2023-08-20T06:53:03;9.79;;;9.79;;
68700;SDS011;55682;51.114;5.882;2023-08-20T06:55:30;8.83;;;8.83;;
68700;SDS011;55682;51.114;5.882;2023-08-20T06:57:56;8.76;;;8.76;;
68700;SDS011;55682;51.114;5.882;2023-08-20T07:00:21;8.46;;;8.46;;
68700;SDS011;55682;51.114;5.882;2023-08-20T07:02:47;8.56;;;8.56;;
68700;SDS011;55682;51.114;5.882;2023-08-20T07:05:13;7.29;;;7.29;;
68700;SDS011;55682;51.114;5.882;2023-08-20T07:07:40;7.62;;;7.62;;
68700;SDS011;55682;51.114;5.882;2023-08-20T07:10:05;7.03;;;7.03;;
68700;SDS011;55682;51.114;5.882;2023-08-20T07:12:31;7.15;;;7.15;;
68700;SDS011;55682;51.114;5.882;2023-08-20T07:14:57;7.61;;;7.61;;
68700;SDS011;55682;51.114;5.882;2023-08-20T07:17:23;7.67;;;7.67;;
68700;SDS011;55682;51.114;5.882;2023-08-20T07:19:48;7.69;;;7.69;;
68700;SDS011;55682;51.114;5.882;2023-08-20T07:22:14;7.49;;;7.49;;
68700;SDS011;55682;51.114;5.882;2023-08-20T07:24:39;7.66;;;7.66;;
68700;SDS011;55682;51.114;5.882;2023-08-20T07:27:05;7.22;;;7.22;;
68700;SDS011;55682;51.114;5.882;2023-08-20T07:29:36;6.82;;;6.82;;
68700;SDS011;55682;51.114;5.882;2023-08-20T07:32:02;7.37;;;7.37;;
68700;SDS011;55682;51.114;5.882;2023-08-20T07:34:28;7.03;;;7.03;;
68700;SDS011;55682;51.114;5.882;2023-08-20T07:36:56;6.65;;;6.65;;
68700;SDS011;55682;51.114;5.882;2023-08-20T07:39:22;6.21;;;6.21;;
68700;SDS011;55682;51.114;5.882;2023-08-20T07:41:47;6.66;;;6.66;;
68700;SDS011;55682;51.114;5.882;2023-08-20T07:44:13;6.99;;;6.99;;
68700;SDS011;55682;51.114;5.882;2023-08-20T07:46:39;6.16;;;6.16;;
68700;SDS011;55682;51.114;5.882;2023-08-20T07:49:04;6.36;;;6.36;;
68700;SDS011;55682;51.114;5.882;2023-08-20T07:51:30;6.02;;;6.02;;
68700;SDS011;55682;51.114;5.882;2023-08-20T07:53:55;5.65;;;5.65;;
68700;SDS011;55682;51.114;5.882;2023-08-20T07:56:23;5.74;;;5.74;;
68700;SDS011;55682;51.114;5.882;2023-08-20T07:58:49;5.19;;;5.19;;
68700;SDS011;55682;51.114;5.882;2023-08-20T08:01:14;5.56;;;5.56;;
68700;SDS011;55682;51.114;5.882;2023-08-20T08:03:40;5.18;;;5.18;;
68700;SDS011;55682;51.114;5.882;2023-08-20T08:06:05;5.12;;;5.12;;
68700;SDS011;55682;51.114;5.882;2023-08-20T08:08:31;5.04;;;5.04;;
68700;SDS011;55682;51.114;5.882;2023-08-20T08:10:57;5.02;;;5.02;;
68700;SDS011;55682;51.114;5.882;2023-08-20T08:13:22;5.22;;;5.22;;
68700;SDS011;55682;51.114;5.882;2023-08-20T08:15:49;4.90;;;4.90;;
68700;SDS011;55682;51.114;5.882;2023-08-20T08:18:15;5.41;;;5.41;;
68700;SDS011;55682;51.114;5.882;2023-08-20T08:20:41;5.27;;;5.27;;
68700;SDS011;55682;51.114;5.882;2023-08-20T08:23:07;5.02;;;5.02;;
68700;SDS011;55682;51.114;5.882;2023-08-20T08:25:33;5.54;;;5.54;;
68700;SDS011;55682;51.114;5.882;2023-08-20T08:27:58;5.38;;;5.38;;
68700;SDS011;55682;51.114;5.882;2023-08-20T08:30:24;5.68;;;5.68;;
68700;SDS011;55682;51.114;5.882;2023-08-20T08:32:49;5.67;;;5.67;;
68700;SDS011;55682;51.114;5.882;2023-08-20T08:35:16;5.61;;;5.61;;
68700;SDS011;55682;51.114;5.882;2023-08-20T08:37:42;5.34;;;5.34;;
68700;SDS011;55682;51.114;5.882;2023-08-20T08:40:08;4.96;;;4.96;;
68700;SDS011;55682;51.114;5.882;2023-08-20T08:42:34;5.07;;;5.07;;
68700;SDS011;55682;51.114;5.882;2023-08-20T08:45:00;5.31;;;5.31;;
68700;SDS011;55682;51.114;5.882;2023-08-20T08:47:27;5.27;;;5.27;;
68700;SDS011;55682;51.114;5.882;2023-08-20T08:49:57;5.62;;;5.62;;
68700;SDS011;55682;51.114;5.882;2023-08-20T08:52:23;6.10;;;6.10;;
68700;SDS011;55682;51.114;5.882;2023-08-20T08:54:51;5.45;;;5.45;;
68700;SDS011;55682;51.114;5.882;2023-08-20T08:57:17;4.95;;;4.95;;
68700;SDS011;55682;51.114;5.882;2023-08-20T08:59:43;5.09;;;5.09;;
68700;SDS011;55682;51.114;5.882;2023-08-20T09:02:09;5.59;;;5.59;;
68700;SDS011;55682;51.114;5.882;2023-08-20T09:04:42;5.36;;;5.36;;
68700;SDS011;55682;51.114;5.882;2023-08-20T09:07:11;5.58;;;5.58;;
68700;SDS011;55682;51.114;5.882;2023-08-20T09:09:41;5.10;;;5.10;;
68700;SDS011;55682;51.114;5.882;2023-08-20T09:12:18;4.63;;;4.63;;
68700;SDS011;55682;51.114;5.882;2023-08-20T09:14:45;4.43;;;4.43;;
68700;SDS011;55682;51.114;5.882;2023-08-20T09:17:15;4.31;;;4.31;;
68700;SDS011;55682;51.114;5.882;2023-08-20T09:19:42;4.88;;;4.88;;
68700;SDS011;55682;51.114;5.882;2023-08-20T09:22:12;5.19;;;5.19;;
68700;SDS011;55682;51.114;5.882;2023-08-20T09:24:44;6.13;;;6.13;;
68700;SDS011;55682;51.114;5.882;2023-08-20T09:27:11;6.44;;;6.44;;
68700;SDS011;55682;51.114;5.882;2023-08-20T09:29:45;6.72;;;6.72;;
68700;SDS011;55682;51.114;5.882;2023-08-20T09:32:18;6.46;;;6.46;;
68700;SDS011;55682;51.114;5.882;2023-08-20T09:34:45;6.44;;;6.44;;
68700;SDS011;55682;51.114;5.882;2023-08-20T09:37:13;6.62;;;6.62;;
68700;SDS011;55682;51.114;5.882;2023-08-20T09:39:41;6.25;;;6.25;;
68700;SDS011;55682;51.114;5.882;2023-08-20T09:42:08;6.09;;;6.09;;
68700;SDS011;55682;51.114;5.882;2023-08-20T09:44:35;6.01;;;6.01;;
68700;SDS011;55682;51.114;5.882;2023-08-20T09:47:11;6.26;;;6.26;;
68700;SDS011;55682;51.114;5.882;2023-08-20T09:49:42;6.52;;;6.52;;
68700;SDS011;55682;51.114;5.882;2023-08-20T09:52:13;6.15;;;6.15;;
68700;SDS011;55682;51.114;5.882;2023-08-20T09:57:23;5.86;;;5.86;;
68700;SDS011;55682;51.114;5.882;2023-08-20T09:59:56;5.86;;;5.86;;
68700;SDS011;55682;51.114;5.882;2023-08-20T10:02:24;5.82;;;5.82;;
68700;SDS011;55682;51.114;5.882;2023-08-20T10:04:51;5.63;;;5.63;;
68700;SDS011;55682;51.114;5.882;2023-08-20T10:07:18;5.39;;;5.39;;
68700;SDS011;55682;51.114;5.882;2023-08-20T10:09:44;5.55;;;5.55;;
68700;SDS011;55682;51.114;5.882;2023-08-20T10:12:12;5.75;;;5.75;;
68700;SDS011;55682;51.114;5.882;2023-08-20T10:14:39;5.08;;;5.08;;
68700;SDS011;55682;51.114;5.882;2023-08-20T10:17:06;4.79;;;4.79;;
68700;SDS011;55682;51.114;5.882;2023-08-20T10:19:34;4.32;;;4.32;;
68700;SDS011;55682;51.114;5.882;2023-08-20T10:22:01;4.69;;;4.69;;
68700;SDS011;55682;51.114;5.882;2023-08-20T10:24:28;4.79;;;4.79;;
68700;SDS011;55682;51.114;5.882;2023-08-20T10:27:12;4.98;;;4.98;;
68700;SDS011;55682;51.114;5.882;2023-08-20T10:29:38;4.27;;;4.27;;
68700;SDS011;55682;51.114;5.882;2023-08-20T10:32:11;4.31;;;4.31;;
68700;SDS011;55682;51.114;5.882;2023-08-20T10:34:38;4.14;;;4.14;;
68700;SDS011;55682;51.114;5.882;2023-08-20T10:37:10;4.03;;;4.03;;
68700;SDS011;55682;51.114;5.882;2023-08-20T10:39:38;4.31;;;4.31;;
68700;SDS011;55682;51.114;5.882;2023-08-20T10:47:45;4.05;;;4.05;;
68700;SDS011;55682;51.114;5.882;2023-08-20T10:50:15;3.60;;;3.60;;
68700;SDS011;55682;51.114;5.882;2023-08-20T10:52:42;3.67;;;3.67;;
68700;SDS011;55682;51.114;5.882;2023-08-20T10:55:13;3.61;;;3.61;;
68700;SDS011;55682;51.114;5.882;2023-08-20T10:57:40;3.68;;;3.68;;
68700;SDS011;55682;51.114;5.882;2023-08-20T11:00:06;3.13;;;3.13;;
68700;SDS011;55682;51.114;5.882;2023-08-20T11:02:37;2.66;;;2.66;;
68700;SDS011;55682;51.114;5.882;2023-08-20T11:05:07;2.57;;;2.57;;
68700;SDS011;55682;51.114;5.882;2023-08-20T11:07:47;2.49;;;2.49;;
68700;SDS011;55682;51.114;5.882;2023-08-20T11:10:14;2.51;;;2.51;;
68700;SDS011;55682;51.114;5.882;2023-08-20T11:12:41;2.86;;;2.86;;
68700;SDS011;55682;51.114;5.882;2023-08-20T11:15:13;2.79;;;2.79;;
68700;SDS011;55682;51.114;5.882;2023-08-20T11:17:42;2.46;;;2.46;;
68700;SDS011;55682;51.114;5.882;2023-08-20T11:20:13;2.35;;;2.35;;
68700;SDS011;55682;51.114;5.882;2023-08-20T11:22:39;2.47;;;2.47;;
68700;SDS011;55682;51.114;5.882;2023-08-20T11:25:06;2.37;;;2.37;;
68700;SDS011;55682;51.114;5.882;2023-08-20T11:27:39;2.39;;;2.39;;
68700;SDS011;55682;51.114;5.882;2023-08-20T11:30:06;2.22;;;2.22;;
68700;SDS011;55682;51.114;5.882;2023-08-20T11:32:33;2.27;;;2.27;;
68700;SDS011;55682;51.114;5.882;2023-08-20T11:34:58;2.05;;;2.05;;
68700;SDS011;55682;51.114;5.882;2023-08-20T11:37:24;1.98;;;1.98;;
68700;SDS011;55682;51.114;5.882;2023-08-20T11:39:50;1.75;;;1.75;;
68700;SDS011;55682;51.114;5.882;2023-08-20T11:42:16;1.73;;;1.73;;
68700;SDS011;55682;51.114;5.882;2023-08-20T11:44:45;2.00;;;2.00;;
68700;SDS011;55682;51.114;5.882;2023-08-20T11:47:15;2.09;;;2.09;;
68700;SDS011;55682;51.114;5.882;2023-08-20T11:49:42;1.92;;;1.92;;
68700;SDS011;55682;51.114;5.882;2023-08-20T11:52:08;1.99;;;1.99;;
68700;SDS011;55682;51.114;5.882;2023-08-20T11:54:35;1.91;;;1.91;;
68700;SDS011;55682;51.114;5.882;2023-08-20T11:57:05;2.04;;;2.04;;
68700;SDS011;55682;51.114;5.882;2023-08-20T11:59:32;2.35;;;2.35;;
68700;SDS011;55682;51.114;5.882;2023-08-20T12:02:00;2.00;;;2.00;;
68700;SDS011;55682;51.114;5.882;2023-08-20T12:04:28;1.79;;;1.79;;
68700;SDS011;55682;51.114;5.882;2023-08-20T12:07:05;2.34;;;2.34;;
68700;SDS011;55682;51.114;5.882;2023-08-20T12:09:31;2.35;;;2.35;;
68700;SDS011;55682;51.114;5.882;2023-08-20T12:11:58;2.28;;;2.28;;
68700;SDS011;55682;51.114;5.882;2023-08-20T12:14:24;2.12;;;2.12;;
68700;SDS011;55682;51.114;5.882;2023-08-20T12:16:50;1.99;;;1.99;;
68700;SDS011;55682;51.114;5.882;2023-08-20T12:19:16;2.06;;;2.06;;
68700;SDS011;55682;51.114;5.882;2023-08-20T12:21:42;1.89;;;1.89;;
68700;SDS011;55682;51.114;5.882;2023-08-20T12:24:11;1.71;;;1.71;;
68700;SDS011;55682;51.114;5.882;2023-08-20T12:26:37;1.73;;;1.73;;
68700;SDS011;55682;51.114;5.882;2023-08-20T12:29:04;1.73;;;1.73;;
68700;SDS011;55682;51.114;5.882;2023-08-20T12:31:33;1.63;;;1.63;;
68700;SDS011;55682;51.114;5.882;2023-08-20T12:34:01;1.81;;;1.81;;
68700;SDS011;55682;51.114;5.882;2023-08-20T12:36:27;1.92;;;1.92;;
68700;SDS011;55682;51.114;5.882;2023-08-20T12:38:53;1.90;;;1.90;;
68700;SDS011;55682;51.114;5.882;2023-08-20T12:41:20;1.85;;;1.85;;
68700;SDS011;55682;51.114;5.882;2023-08-20T12:43:46;2.10;;;2.10;;
68700;SDS011;55682;51.114;5.882;2023-08-20T12:46:12;1.90;;;1.90;;
68700;SDS011;55682;51.114;5.882;2023-08-20T12:48:39;2.07;;;2.07;;
68700;SDS011;55682;51.114;5.882;2023-08-20T12:51:05;1.90;;;1.90;;
68700;SDS011;55682;51.114;5.882;2023-08-20T12:53:31;1.75;;;1.75;;
68700;SDS011;55682;51.114;5.882;2023-08-20T12:55:57;1.71;;;1.71;;
68700;SDS011;55682;51.114;5.882;2023-08-20T12:58:23;1.66;;;1.66;;
68700;SDS011;55682;51.114;5.882;2023-08-20T13:00:50;1.69;;;1.69;;
68700;SDS011;55682;51.114;5.882;2023-08-20T13:03:17;1.88;;;1.88;;
68700;SDS011;55682;51.114;5.882;2023-08-20T13:05:43;1.85;;;1.85;;
68700;SDS011;55682;51.114;5.882;2023-08-20T13:08:09;1.99;;;1.99;;
68700;SDS011;55682;51.114;5.882;2023-08-20T13:10:40;1.85;;;1.85;;
68700;SDS011;55682;51.114;5.882;2023-08-20T13:13:09;1.80;;;1.80;;
68700;SDS011;55682;51.114;5.882;2023-08-20T13:15:36;1.74;;;1.74;;
68700;SDS011;55682;51.114;5.882;2023-08-20T13:18:02;1.74;;;1.74;;
68700;SDS011;55682;51.114;5.882;2023-08-20T13:20:29;1.73;;;1.73;;
68700;SDS011;55682;51.114;5.882;2023-08-20T13:22:55;1.64;;;1.64;;
68700;SDS011;55682;51.114;5.882;2023-08-20T13:25:20;1.79;;;1.79;;
68700;SDS011;55682;51.114;5.882;2023-08-20T13:27:47;1.63;;;1.63;;
68700;SDS011;55682;51.114;5.882;2023-08-20T13:30:13;1.47;;;1.47;;
68700;SDS011;55682;51.114;5.882;2023-08-20T13:32:38;1.62;;;1.62;;
68700;SDS011;55682;51.114;5.882;2023-08-20T13:35:04;1.65;;;1.65;;
68700;SDS011;55682;51.114;5.882;2023-08-20T13:37:30;1.77;;;1.77;;
68700;SDS011;55682;51.114;5.882;2023-08-20T13:39:57;1.56;;;1.56;;
68700;SDS011;55682;51.114;5.882;2023-08-20T13:42:23;1.58;;;1.58;;
68700;SDS011;55682;51.114;5.882;2023-08-20T13:44:49;1.56;;;1.56;;
68700;SDS011;55682;51.114;5.882;2023-08-20T13:47:15;1.55;;;1.55;;
68700;SDS011;55682;51.114;5.882;2023-08-20T13:49:40;1.56;;;1.56;;
68700;SDS011;55682;51.114;5.882;2023-08-20T13:52:06;1.51;;;1.51;;
68700;SDS011;55682;51.114;5.882;2023-08-20T13:54:32;1.59;;;1.59;;
68700;SDS011;55682;51.114;5.882;2023-08-20T13:56:58;1.78;;;1.78;;
68700;SDS011;55682;51.114;5.882;2023-08-20T13:59:23;1.84;;;1.84;;
68700;SDS011;55682;51.114;5.882;2023-08-20T14:01:49;1.98;;;1.98;;
68700;SDS011;55682;51.114;5.882;2023-08-20T14:04:15;1.72;;;1.72;;
68700;SDS011;55682;51.114;5.882;2023-08-20T14:06:40;1.61;;;1.61;;
68700;SDS011;55682;51.114;5.882;2023-08-20T14:09:06;1.76;;;1.76;;
68700;SDS011;55682;51.114;5.882;2023-08-20T14:11:32;1.61;;;1.61;;
68700;SDS011;55682;51.114;5.882;2023-08-20T14:13:57;1.49;;;1.49;;
68700;SDS011;55682;51.114;5.882;2023-08-20T14:16:23;1.49;;;1.49;;
68700;SDS011;55682;51.114;5.882;2023-08-20T14:18:49;1.46;;;1.46;;
68700;SDS011;55682;51.114;5.882;2023-08-20T14:21:14;1.42;;;1.42;;
68700;SDS011;55682;51.114;5.882;2023-08-20T14:23:40;1.50;;;1.50;;
68700;SDS011;55682;51.114;5.882;2023-08-20T14:26:06;1.49;;;1.49;;
68700;SDS011;55682;51.114;5.882;2023-08-20T14:28:33;1.52;;;1.52;;
68700;SDS011;55682;51.114;5.882;2023-08-20T14:31:02;1.54;;;1.54;;
68700;SDS011;55682;51.114;5.882;2023-08-20T14:33:29;1.51;;;1.51;;
68700;SDS011;55682;51.114;5.882;2023-08-20T14:35:58;1.73;;;1.73;;
68700;SDS011;55682;51.114;5.882;2023-08-20T14:38:23;1.49;;;1.49;;
68700;SDS011;55682;51.114;5.882;2023-08-20T14:40:49;1.43;;;1.43;;
68700;SDS011;55682;51.114;5.882;2023-08-20T14:43:15;1.54;;;1.54;;
68700;SDS011;55682;51.114;5.882;2023-08-20T14:45:40;1.51;;;1.51;;
68700;SDS011;55682;51.114;5.882;2023-08-20T14:48:06;1.60;;;1.60;;
68700;SDS011;55682;51.114;5.882;2023-08-20T14:50:32;1.46;;;1.46;;